sensor_id;sensor_type;location;lat;lon;timestamp;pressure;altitude;pressure_sealevel;temperature;humidity
77192;BME280;66172;48.526;8.078;2023-12-07T00:00:37;100058.78;;;0.92;100.00
77192;BME280;66172;48.526;8.078;2023-12-07T00:03:03;100058.22;;;0.80;100.00
77192;BME280;66172;48.526;8.078;2023-12-07T00:05:32;100057.66;;;0.78;100.00
77192;BME280;66172;48.526;8.078;2023-12-07T00:07:59;100049.63;;;0.78;100.00
77192;BME280;66172;48.526;8.078;2023-12-07T00:10:24;100047.97;;;0.67;100.00
77192;BME280;66172;48.526;8.078;2023-12-07T00:12:50;100047.63;;;0.58;100.00
77192;BME280;66172;48.526;8.078;2023-12-07T00:15:16;100050.56;;;0.57;100.00
77192;BME280;66172;48.526;8.078;2023-12-07T00:17:42;100043.06;;;0.54;100.00
77192;BME280;66172;48.526;8.078;2023-12-07T00:20:08;100051.88;;;0.49;100.00
77192;BME280;66172;48.526;8.078;2023-12-07T00:22:34;100056.63;;;0.42;100.00
77192;BME280;66172;48.526;8.078;2023-12-07T00:25:00;100049.09;;;0.39;100.00
77192;BME280;66172;48.526;8.078;2023-12-07T00:27:26;100043.88;;;0.54;100.00
77192;BME280;66172;48.526;8.078;2023-12-07T00:29:52;100048.56;;;0.74;100.00
77192;BME280;66172;48.526;8.078;2023-12-07T00:32:18;100045.88;;;0.79;100.00
77192;BME280;66172;48.526;8.078;2023-12-07T00:34:44;100055.13;;;0.56;100.00
77192;BME280;66172;48.526;8.078;2023-12-07T00:37:10;100054.53;;;0.49;100.00
77192;BME280;66172;48.526;8.078;2023-12-07T00:39:35;100067.88;;;0.44;100.00
77192;BME280;66172;48.526;8.078;2023-12-07T00:42:02;100064.97;;;0.45;100.00
77192;BME280;66172;48.526;8.078;2023-12-07T00:44:28;100063.34;;;0.49;100.00
77192;BME280;66172;48.526;8.078;2023-12-07T00:46:54;100067.13;;;0.48;100.00
77192;BME280;66172;48.526;8.078;2023-12-07T00:49:20;100058.28;;;0.53;100.00
77192;BME280;66172;48.526;8.078;2023-12-07T00:51:46;100066.38;;;0.58;100.00
77192;BME280;66172;48.526;8.078;2023-12-07T00:54:12;100079.81;;;0.68;100.00
77192;BME280;66172;48.526;8.078;2023-12-07T00:56:39;100080.16;;;0.40;100.00
77192;BME280;66172;48.526;8.078;2023-12-07T00:59:05;100077.09;;;0.26;100.00
77192;BME280;66172;48.526;8.078;2023-12-07T01:01:30;100075.19;;;0.22;100.00
77192;BME280;66172;48.526;8.078;2023-12-07T01:03:56;100071.22;;;0.24;100.00
77192;BME280;66172;48.526;8.078;2023-12-07T01:06:22;100080.41;;;0.38;100.00
77192;BME280;66172;48.526;8.078;2023-12-07T01:08:48;100077.81;;;0.48;100.00
77192;BME280;66172;48.526;8.078;2023-12-07T01:11:14;100077.06;;;0.58;100.00
77192;BME280;66172;48.526;8.078;2023-12-07T01:13:40;100075.09;;;0.85;100.00
77192;BME280;66172;48.526;8.078;2023-12-07T01:16:06;100072.47;;;0.95;100.00
77192;BME280;66172;48.526;8.078;2023-12-07T01:18:32;100081.66;;;1.10;100.00
77192;BME280;66172;48.526;8.078;2023-12-07T01:20:58;100078.72;;;1.16;100.00
77192;BME280;66172;48.526;8.078;2023-12-07T01:23:24;100084.38;;;1.20;100.00
77192;BME280;66172;48.526;8.078;2023-12-07T01:25:50;100076.84;;;1.12;100.00
77192;BME280;66172;48.526;8.078;2023-12-07T01:28:16;100078.22;;;1.19;100.00
77192;BME280;66172;48.526;8.078;2023-12-07T01:30:41;100084.16;;;1.31;100.00
77192;BME280;66172;48.526;8.078;2023-12-07T01:33:07;100082.00;;;1.28;100.00
77192;BME280;66172;48.526;8.078;2023-12-07T01:35:33;100079.28;;;1.18;100.00
77192;BME280;66172;48.526;8.078;2023-12-07T01:37:59;100082.31;;;0.85;100.00
77192;BME280;66172;48.526;8.078;2023-12-07T01:40:25;100080.81;;;0.57;100.00
77192;BME280;66172;48.526;8.078;2023-12-07T01:42:52;100075.59;;;0.40;100.00
77192;BME280;66172;48.526;8.078;2023-12-07T01:45:19;100082.22;;;0.33;100.00
77192;BME280;66172;48.526;8.078;2023-12-07T01:47:46;100077.34;;;0.25;100.00
77192;BME280;66172;48.526;8.078;2023-12-07T01:50:13;100074.78;;;0.35;100.00
77192;BME280;66172;48.526;8.078;2023-12-07T01:52:44;100090.53;;;0.31;100.00
77192;BME280;66172;48.526;8.078;2023-12-07T01:55:11;100076.81;;;0.23;100.00
77192;BME280;66172;48.526;8.078;2023-12-07T01:57:37;100072.25;;;0.23;100.00
77192;BME280;66172;48.526;8.078;2023-12-07T02:00:04;100078.13;;;0.20;100.00
77192;BME280;66172;48.526;8.078;2023-12-07T02:02:31;100070.72;;;0.32;100.00
77192;BME280;66172;48.526;8.078;2023-12-07T02:04:57;100079.03;;;0.36;100.00
77192;BME280;66172;48.526;8.078;2023-12-07T02:07:26;100072.81;;;0.62;100.00
77192;BME280;66172;48.526;8.078;2023-12-07T02:09:53;100072.81;;;0.62;100.00
77192;BME280;66172;48.526;8.078;2023-12-07T02:12:19;100073.50;;;0.47;100.00
77192;BME280;66172;48.526;8.078;2023-12-07T02:14:45;100086.09;;;0.47;100.00
77192;BME280;66172;48.526;8.078;2023-12-07T02:17:22;100081.38;;;0.59;100.00
77192;BME280;66172;48.526;8.078;2023-12-07T02:20:11;100084.97;;;0.80;100.00
77192;BME280;66172;48.526;8.078;2023-12-07T02:22:52;100084.97;;;0.80;100.00
77192;BME280;66172;48.526;8.078;2023-12-07T02:25:24;100080.81;;;0.57;100.00
77192;BME280;66172;48.526;8.078;2023-12-07T02:27:51;100076.53;;;0.56;100.00
77192;BME280;66172;48.526;8.078;2023-12-07T02:30:17;100077.13;;;0.63;100.00
77192;BME280;66172;48.526;8.078;2023-12-07T02:32:44;100082.53;;;0.73;100.00
77192;BME280;66172;48.526;8.078;2023-12-07T02:35:11;100085.75;;;0.75;100.00
77192;BME280;66172;48.526;8.078;2023-12-07T02:37:51;100086.91;;;0.89;100.00
77192;BME280;66172;48.526;8.078;2023-12-07T02:40:20;100081.50;;;0.79;100.00
77192;BME280;66172;48.526;8.078;2023-12-07T02:42:47;100083.84;;;0.34;100.00
77192;BME280;66172;48.526;8.078;2023-12-07T02:45:14;100087.25;;;0.24;100.00
77192;BME280;66172;48.526;8.078;2023-12-07T02:47:40;100078.88;;;0.16;100.00
77192;BME280;66172;48.526;8.078;2023-12-07T02:50:09;100076.63;;;0.03;100.00
77192;BME280;66172;48.526;8.078;2023-12-07T02:52:35;100072.88;;;0.04;100.00
77192;BME280;66172;48.526;8.078;2023-12-07T02:55:01;100078.22;;;0.04;100.00
77192;BME280;66172;48.526;8.078;2023-12-07T02:57:28;100068.25;;;-0.06;100.00
77192;BME280;66172;48.526;8.078;2023-12-07T02:59:55;100064.97;;;-0.13;100.00
77192;BME280;66172;48.526;8.078;2023-12-07T03:02:21;100067.72;;;-0.08;100.00
77192;BME280;66172;48.526;8.078;2023-12-07T03:04:47;100081.22;;;-0.20;100.00
77192;BME280;66172;48.526;8.078;2023-12-07T03:07:13;100079.25;;;-0.29;100.00
77192;BME280;66172;48.526;8.078;2023-12-07T03:09:39;100074.16;;;-0.31;100.00
77192;BME280;66172;48.526;8.078;2023-12-07T03:12:06;100085.63;;;-0.35;100.00
77192;BME280;66172;48.526;8.078;2023-12-07T03:14:32;100088.38;;;-0.25;100.00
77192;BME280;66172;48.526;8.078;2023-12-07T03:16:58;100087.47;;;-0.36;100.00
77192;BME280;66172;48.526;8.078;2023-12-07T03:19:24;100084.88;;;-0.04;100.00
77192;BME280;66172;48.526;8.078;2023-12-07T03:21:50;100095.31;;;-0.24;100.00
77192;BME280;66172;48.526;8.078;2023-12-07T03:24:16;100093.66;;;-0.30;100.00
77192;BME280;66172;48.526;8.078;2023-12-07T03:26:42;100080.75;;;-0.38;100.00
77192;BME280;66172;48.526;8.078;2023-12-07T03:29:08;100093.56;;;-0.40;100.00
77192;BME280;66172;48.526;8.078;2023-12-07T03:31:34;100097.03;;;-0.40;100.00
77192;BME280;66172;48.526;8.078;2023-12-07T03:34:00;100097.84;;;-0.39;100.00
77192;BME280;66172;48.526;8.078;2023-12-07T03:36:27;100092.41;;;-0.49;100.00
77192;BME280;66172;48.526;8.078;2023-12-07T03:38:53;100098.72;;;-0.56;100.00
77192;BME280;66172;48.526;8.078;2023-12-07T03:41:19;100104.03;;;-0.61;100.00
77192;BME280;66172;48.526;8.078;2023-12-07T03:43:45;100102.09;;;-0.65;100.00
77192;BME280;66172;48.526;8.078;2023-12-07T03:46:10;100100.16;;;-0.70;100.00
77192;BME280;66172;48.526;8.078;2023-12-07T03:48:36;100105.00;;;-0.67;100.00
77192;BME280;66172;48.526;8.078;2023-12-07T03:51:02;100105.25;;;-0.68;100.00
77192;BME280;66172;48.526;8.078;2023-12-07T03:53:28;100097.88;;;-0.61;100.00
77192;BME280;66172;48.526;8.078;2023-12-07T03:55:55;100096.56;;;-0.59;100.00
77192;BME280;66172;48.526;8.078;2023-12-07T03:58:21;100095.75;;;-0.59;100.00
77192;BME280;66172;48.526;8.078;2023-12-07T04:00:47;100089.53;;;-0.43;100.00
77192;BME280;66172;48.526;8.078;2023-12-07T04:03:13;100094.25;;;-0.28;100.00
77192;BME280;66172;48.526;8.078;2023-12-07T04:05:39;100086.88;;;-0.16;100.00
77192;BME280;66172;48.526;8.078;2023-12-07T04:08:05;100089.59;;;-0.11;100.00
77192;BME280;66172;48.526;8.078;2023-12-07T04:10:31;100086.53;;;0.07;100.00
77192;BME280;66172;48.526;8.078;2023-12-07T04:12:57;100084.13;;;0.06;100.00
77192;BME280;66172;48.526;8.078;2023-12-07T04:15:23;100091.41;;;-0.17;100.00
77192;BME280;66172;48.526;8.078;2023-12-07T04:17:49;100092.63;;;-0.29;100.00
77192;BME280;66172;48.526;8.078;2023-12-07T04:20:15;100093.75;;;-0.47;100.00
77192;BME280;66172;48.526;8.078;2023-12-07T04:22:41;100089.72;;;-0.49;100.00
77192;BME280;66172;48.526;8.078;2023-12-07T04:25:07;100083.47;;;-0.60;100.00
77192;BME280;66172;48.526;8.078;2023-12-07T04:27:34;100080.00;;;-0.61;100.00
77192;BME280;66172;48.526;8.078;2023-12-07T04:29:59;100082.69;;;-0.34;100.00
77192;BME280;66172;48.526;8.078;2023-12-07T04:32:25;100091.88;;;-0.25;100.00
77192;BME280;66172;48.526;8.078;2023-12-07T04:34:52;100090.66;;;-0.12;100.00
77192;BME280;66172;48.526;8.078;2023-12-07T04:37:18;100086.97;;;-0.33;100.00
77192;BME280;66172;48.526;8.078;2023-12-07T04:39:44;100082.03;;;-0.46;100.00
77192;BME280;66172;48.526;8.078;2023-12-07T04:42:10;100081.41;;;-0.53;100.00
77192;BME280;66172;48.526;8.078;2023-12-07T04:44:36;100083.78;;;-0.57;100.00
77192;BME280;66172;48.526;8.078;2023-12-07T04:47:02;100079.91;;;-0.66;100.00
77192;BME280;66172;48.526;8.078;2023-12-07T04:49:27;100080.97;;;-0.67;100.00
77192;BME280;66172;48.526;8.078;2023-12-07T04:51:53;100084.41;;;-0.71;100.00
77192;BME280;66172;48.526;8.078;2023-12-07T04:54:19;100087.88;;;-0.71;100.00
77192;BME280;66172;48.526;8.078;2023-12-07T04:56:45;100088.13;;;-0.72;100.00
77192;BME280;66172;48.526;8.078;2023-12-07T04:59:11;100091.63;;;-0.67;100.00
77192;BME280;66172;48.526;8.078;2023-12-07T05:01:37;100087.59;;;-0.47;100.00
77192;BME280;66172;48.526;8.078;2023-12-07T05:04:04;100075.06;;;-0.47;100.00
77192;BME280;66172;48.526;8.078;2023-12-07T05:06:31;100078.53;;;-0.46;100.00
77192;BME280;66172;48.526;8.078;2023-12-07T05:08:57;100078.03;;;-0.43;100.00
77192;BME280;66172;48.526;8.078;2023-12-07T05:11:23;100084.75;;;-0.63;100.00
77192;BME280;66172;48.526;8.078;2023-12-07T05:13:49;100078.28;;;-0.67;100.00
77192;BME280;66172;48.526;8.078;2023-12-07T05:16:15;100084.94;;;-0.69;100.00
77192;BME280;66172;48.526;8.078;2023-12-07T05:18:41;100081.91;;;-0.78;100.00
77192;BME280;66172;48.526;8.078;2023-12-07T05:21:07;100081.41;;;-0.75;100.00
77192;BME280;66172;48.526;8.078;2023-12-07T05:23:33;100086.69;;;-0.58;100.00
77192;BME280;66172;48.526;8.078;2023-12-07T05:26:00;100078.88;;;-0.65;100.00
77192;BME280;66172;48.526;8.078;2023-12-07T05:28:26;100086.56;;;-0.46;100.00
77192;BME280;66172;48.526;8.078;2023-12-07T05:30:52;100084.50;;;-0.61;100.00
77192;BME280;66172;48.526;8.078;2023-12-07T05:33:18;100079.38;;;-0.68;100.00
77192;BME280;66172;48.526;8.078;2023-12-07T05:35:47;100083.59;;;-0.72;100.00
77192;BME280;66172;48.526;8.078;2023-12-07T05:38:13;100077.75;;;-0.69;100.00
77192;BME280;66172;48.526;8.078;2023-12-07T05:40:42;100089.59;;;-0.60;100.00
77192;BME280;66172;48.526;8.078;2023-12-07T05:43:08;100093.38;;;-0.77;100.00
77192;BME280;66172;48.526;8.078;2023-12-07T05:45:33;100099.22;;;-0.80;100.00
77192;BME280;66172;48.526;8.078;2023-12-07T05:47:59;100098.06;;;-0.68;100.00
77192;BME280;66172;48.526;8.078;2023-12-07T05:50:25;100096.97;;;-0.45;100.00
77192;BME280;66172;48.526;8.078;2023-12-07T05:52:52;100096.13;;;-0.24;100.00
77192;BME280;66172;48.526;8.078;2023-12-07T05:55:18;100101.59;;;-0.14;100.00
77192;BME280;66172;48.526;8.078;2023-12-07T05:57:46;100092.63;;;-0.51;100.00
77192;BME280;66172;48.526;8.078;2023-12-07T06:00:13;100091.34;;;-0.70;100.00
77192;BME280;66172;48.526;8.078;2023-12-07T06:02:39;100093.69;;;-0.74;100.00
77192;BME280;66172;48.526;8.078;2023-12-07T06:05:06;100094.47;;;-0.78;100.00
77192;BME280;66172;48.526;8.078;2023-12-07T06:07:32;100097.94;;;-0.78;100.00
77192;BME280;66172;48.526;8.078;2023-12-07T06:09:58;100087.25;;;-0.78;100.00
77192;BME280;66172;48.526;8.078;2023-12-07T06:12:24;100100.09;;;-0.75;100.00
77192;BME280;66172;48.526;8.078;2023-12-07T06:14:50;100100.66;;;-0.73;100.00
77192;BME280;66172;48.526;8.078;2023-12-07T06:17:16;100102.00;;;-0.70;100.00
77192;BME280;66172;48.526;8.078;2023-12-07T06:19:42;100098.09;;;-0.63;100.00
77192;BME280;66172;48.526;8.078;2023-12-07T06:22:08;100095.63;;;-0.69;100.00
77192;BME280;66172;48.526;8.078;2023-12-07T06:24:34;100095.31;;;-0.73;100.00
77192;BME280;66172;48.526;8.078;2023-12-07T06:27:02;100089.44;;;-0.75;100.00
77192;BME280;66172;48.526;8.078;2023-12-07T06:29:28;100091.72;;;-0.62;100.00
77192;BME280;66172;48.526;8.078;2023-12-07T06:31:55;100087.28;;;-0.51;100.00
77192;BME280;66172;48.526;8.078;2023-12-07T06:34:21;100091.75;;;-0.35;100.00
77192;BME280;66172;48.526;8.078;2023-12-07T06:36:48;100084.00;;;-0.58;100.00
77192;BME280;66172;48.526;8.078;2023-12-07T06:39:14;100096.13;;;-0.51;100.00
77192;BME280;66172;48.526;8.078;2023-12-07T06:41:40;100099.09;;;-0.47;100.00
77192;BME280;66172;48.526;8.078;2023-12-07T06:44:06;100091.91;;;-0.46;100.00
77192;BME280;66172;48.526;8.078;2023-12-07T06:46:32;100084.00;;;-0.58;100.00
77192;BME280;66172;48.526;8.078;2023-12-07T06:48:58;100090.66;;;-0.82;100.00
77192;BME280;66172;48.526;8.078;2023-12-07T06:51:24;100087.59;;;-0.91;100.00
77192;BME280;66172;48.526;8.078;2023-12-07T06:53:50;100090.66;;;-0.82;100.00
77192;BME280;66172;48.526;8.078;2023-12-07T06:56:16;100074.56;;;-0.66;100.00
77192;BME280;66172;48.526;8.078;2023-12-07T06:58:41;100079.41;;;-0.41;99.63
77192;BME280;66172;48.526;8.078;2023-12-07T07:01:07;100078.28;;;-0.45;98.90
77192;BME280;66172;48.526;8.078;2023-12-07T07:03:33;100080.94;;;-0.45;99.12
77192;BME280;66172;48.526;8.078;2023-12-07T07:06:00;100079.19;;;-0.34;98.98
77192;BME280;66172;48.526;8.078;2023-12-07T07:08:26;100058.50;;;-0.22;97.85
77192;BME280;66172;48.526;8.078;2023-12-07T07:10:52;100074.25;;;-0.21;97.11
77192;BME280;66172;48.526;8.078;2023-12-07T07:13:18;100058.03;;;-0.41;97.56
77192;BME280;66172;48.526;8.078;2023-12-07T07:15:46;100064.00;;;-0.56;99.40
77192;BME280;66172;48.526;8.078;2023-12-07T07:18:13;100068.28;;;-0.33;98.00
77192;BME280;66172;48.526;8.078;2023-12-07T07:20:39;100067.69;;;-0.35;96.53
77192;BME280;66172;48.526;8.078;2023-12-07T07:23:05;100064.88;;;-0.23;96.54
77192;BME280;66172;48.526;8.078;2023-12-07T07:25:31;100057.88;;;-0.29;95.30
77192;BME280;66172;48.526;8.078;2023-12-07T07:27:57;100050.72;;;-0.24;94.69
77192;BME280;66172;48.526;8.078;2023-12-07T07:30:23;100053.91;;;-0.27;95.62
77192;BME280;66172;48.526;8.078;2023-12-07T07:32:49;100060.78;;;-0.31;95.39
77192;BME280;66172;48.526;8.078;2023-12-07T07:35:15;100063.31;;;-0.19;94.97
77192;BME280;66172;48.526;8.078;2023-12-07T07:37:41;100061.56;;;-0.35;95.69
77192;BME280;66172;48.526;8.078;2023-12-07T07:40:08;100062.66;;;-0.31;97.18
77192;BME280;66172;48.526;8.078;2023-12-07T07:42:40;100068.28;;;-0.55;97.82
77192;BME280;66172;48.526;8.078;2023-12-07T07:45:09;100078.00;;;-0.22;96.57
77192;BME280;66172;48.526;8.078;2023-12-07T07:47:35;100083.59;;;-0.23;95.86
77192;BME280;66172;48.526;8.078;2023-12-07T07:50:01;100064.53;;;-0.05;94.73
77192;BME280;66172;48.526;8.078;2023-12-07T07:52:33;100078.94;;;0.21;93.95
77192;BME280;66172;48.526;8.078;2023-12-07T07:55:00;100083.47;;;0.20;93.67
77192;BME280;66172;48.526;8.078;2023-12-07T07:57:27;100085.19;;;0.31;93.49
77192;BME280;66172;48.526;8.078;2023-12-07T07:59:52;100085.94;;;0.32;92.84
77192;BME280;66172;48.526;8.078;2023-12-07T08:02:20;100085.72;;;0.33;93.83
77192;BME280;66172;48.526;8.078;2023-12-07T08:04:46;100075.16;;;0.54;91.99
77192;BME280;66172;48.526;8.078;2023-12-07T08:07:12;100070.78;;;0.37;93.40
77192;BME280;66172;48.526;8.078;2023-12-07T08:09:38;100068.19;;;0.16;95.15
77192;BME280;66172;48.526;8.078;2023-12-07T08:12:06;100072.13;;;0.08;95.01
77192;BME280;66172;48.526;8.078;2023-12-07T08:14:37;100068.72;;;0.18;94.81
77192;BME280;66172;48.526;8.078;2023-12-07T08:17:03;100073.06;;;0.24;95.16
77192;BME280;66172;48.526;8.078;2023-12-07T08:19:29;100076.81;;;0.23;94.17
77192;BME280;66172;48.526;8.078;2023-12-07T08:21:55;100068.69;;;0.49;92.92
77192;BME280;66172;48.526;8.078;2023-12-07T08:24:21;100064.38;;;0.38;93.75
77192;BME280;66172;48.526;8.078;2023-12-07T08:26:47;100076.88;;;0.70;91.64
77192;BME280;66172;48.526;8.078;2023-12-07T08:29:13;100071.88;;;0.83;90.89
77192;BME280;66172;48.526;8.078;2023-12-07T08:31:40;100064.91;;;0.77;90.73
77192;BME280;66172;48.526;8.078;2023-12-07T08:34:06;100077.19;;;0.78;90.75
77192;BME280;66172;48.526;8.078;2023-12-07T08:36:32;100064.16;;;0.92;90.23
77192;BME280;66172;48.526;8.078;2023-12-07T08:38:58;100069.22;;;0.88;90.27
77192;BME280;66172;48.526;8.078;2023-12-07T08:41:24;100086.47;;;1.08;91.09
77192;BME280;66172;48.526;8.078;2023-12-07T08:43:50;100067.81;;;1.23;89.74
77192;BME280;66172;48.526;8.078;2023-12-07T08:46:15;100063.38;;;0.96;90.32
77192;BME280;66172;48.526;8.078;2023-12-07T08:48:41;100059.66;;;1.02;90.35
77192;BME280;66172;48.526;8.078;2023-12-07T08:51:08;100059.03;;;0.80;91.34
77192;BME280;66172;48.526;8.078;2023-12-07T08:53:35;100053.47;;;0.97;91.94
77192;BME280;66172;48.526;8.078;2023-12-07T08:56:02;100043.97;;;1.26;91.25
77192;BME280;66172;48.526;8.078;2023-12-07T08:58:28;100033.84;;;1.43;89.11
77192;BME280;66172;48.526;8.078;2023-12-07T09:00:53;100031.41;;;1.32;88.80
77192;BME280;66172;48.526;8.078;2023-12-07T09:03:19;100027.13;;;1.36;89.14
77192;BME280;66172;48.526;8.078;2023-12-07T09:05:45;100025.53;;;1.45;89.63
77192;BME280;66172;48.526;8.078;2023-12-07T09:08:11;100021.00;;;1.40;89.39
77192;BME280;66172;48.526;8.078;2023-12-07T09:10:37;100016.97;;;1.48;89.47
77192;BME280;66172;48.526;8.078;2023-12-07T09:13:03;100023.63;;;1.35;89.67
77192;BME280;66172;48.526;8.078;2023-12-07T09:15:29;100021.53;;;1.47;89.19
77192;BME280;66172;48.526;8.078;2023-12-07T09:17:55;100017.00;;;1.63;89.16
77192;BME280;66172;48.526;8.078;2023-12-07T09:20:21;100012.47;;;1.69;89.27
77192;BME280;66172;48.526;8.078;2023-12-07T09:22:47;100014.88;;;1.80;88.55
77192;BME280;66172;48.526;8.078;2023-12-07T09:25:15;100011.13;;;1.71;88.45
77192;BME280;66172;48.526;8.078;2023-12-07T09:27:41;100017.31;;;1.97;87.79
77192;BME280;66172;48.526;8.078;2023-12-07T09:30:08;100012.47;;;2.19;84.86
77192;BME280;66172;48.526;8.078;2023-12-07T09:32:39;100014.84;;;2.56;83.58
77192;BME280;66172;48.526;8.078;2023-12-07T09:35:05;100014.13;;;3.20;82.26
77192;BME280;66172;48.526;8.078;2023-12-07T09:37:36;100009.50;;;3.74;79.47
77192;BME280;66172;48.526;8.078;2023-12-07T09:40:02;100013.47;;;4.16;77.96
77192;BME280;66172;48.526;8.078;2023-12-07T09:42:30;100019.16;;;4.43;76.23
77192;BME280;66172;48.526;8.078;2023-12-07T09:44:56;100024.81;;;4.94;75.47
77192;BME280;66172;48.526;8.078;2023-12-07T09:47:22;100014.13;;;5.31;73.45
77192;BME280;66172;48.526;8.078;2023-12-07T09:49:48;100017.28;;;5.76;72.60
77192;BME280;66172;48.526;8.078;2023-12-07T09:52:15;100025.84;;;6.01;72.01
77192;BME280;66172;48.526;8.078;2023-12-07T09:54:42;100023.16;;;6.01;72.39
77192;BME280;66172;48.526;8.078;2023-12-07T09:57:08;100028.50;;;5.64;71.40
77192;BME280;66172;48.526;8.078;2023-12-07T09:59:36;100025.53;;;5.66;71.94
77192;BME280;66172;48.526;8.078;2023-12-07T10:02:04;100030.53;;;5.53;71.14
77192;BME280;66172;48.526;8.078;2023-12-07T10:04:30;100019.50;;;5.13;72.65
77192;BME280;66172;48.526;8.078;2023-12-07T10:06:56;100028.59;;;4.93;72.08
77192;BME280;66172;48.526;8.078;2023-12-07T10:09:23;100036.34;;;4.18;74.95
77192;BME280;66172;48.526;8.078;2023-12-07T10:11:49;100022.38;;;3.77;77.21
77192;BME280;66172;48.526;8.078;2023-12-07T10:14:27;100024.78;;;3.79;78.22
77192;BME280;66172;48.526;8.078;2023-12-07T10:16:54;100026.44;;;3.70;79.30
77192;BME280;66172;48.526;8.078;2023-12-07T10:19:23;100017.06;;;3.67;78.65
77192;BME280;66172;48.526;8.078;2023-12-07T10:21:54;99999.44;;;3.51;79.66
77192;BME280;66172;48.526;8.078;2023-12-07T10:24:21;99990.56;;;3.50;80.81
77192;BME280;66172;48.526;8.078;2023-12-07T10:26:49;99995.69;;;3.42;81.61
77192;BME280;66172;48.526;8.078;2023-12-07T10:29:19;99992.69;;;3.48;81.93
77192;BME280;66172;48.526;8.078;2023-12-07T10:31:46;99970.94;;;3.45;81.43
77192;BME280;66172;48.526;8.078;2023-12-07T10:34:18;99962.63;;;3.46;81.87
77192;BME280;66172;48.526;8.078;2023-12-07T10:36:46;99949.09;;;3.62;80.73
77192;BME280;66172;48.526;8.078;2023-12-07T10:39:13;99954.28;;;3.48;80.49
77192;BME280;66172;48.526;8.078;2023-12-07T10:41:43;99955.94;;;3.44;82.29
77192;BME280;66172;48.526;8.078;2023-12-07T10:44:11;99942.44;;;3.49;82.11
77192;BME280;66172;48.526;8.078;2023-12-07T10:46:39;99939.25;;;3.42;81.75
77192;BME280;66172;48.526;8.078;2023-12-07T10:49:07;99934.50;;;3.34;82.18
77192;BME280;66172;48.526;8.078;2023-12-07T10:51:58;99929.97;;;3.24;81.15
77192;BME280;66172;48.526;8.078;2023-12-07T10:54:33;99924.50;;;3.39;82.48
77192;BME280;66172;48.526;8.078;2023-12-07T10:57:01;99928.25;;;3.38;83.50
77192;BME280;66172;48.526;8.078;2023-12-07T10:59:31;99929.84;;;3.44;81.84
77192;BME280;66172;48.526;8.078;2023-12-07T11:01:57;99939.63;;;3.25;80.44
77192;BME280;66172;48.526;8.078;2023-12-07T11:04:24;99931.09;;;3.13;82.31
77192;BME280;66172;48.526;8.078;2023-12-07T11:06:52;99928.31;;;2.79;82.84
77192;BME280;66172;48.526;8.078;2023-12-07T11:09:26;99940.22;;;2.58;85.41
77192;BME280;66172;48.526;8.078;2023-12-07T11:12:00;99925.72;;;2.59;85.33
77192;BME280;66172;48.526;8.078;2023-12-07T11:14:27;99933.56;;;2.45;84.57
77192;BME280;66172;48.526;8.078;2023-12-07T11:16:54;99915.28;;;2.53;84.56
77192;BME280;66172;48.526;8.078;2023-12-07T11:22:04;99900.25;;;2.46;87.17
77192;BME280;66172;48.526;8.078;2023-12-07T11:24:30;99896.53;;;2.42;86.30
77192;BME280;66172;48.526;8.078;2023-12-07T11:26:56;99878.88;;;2.31;86.96
77192;BME280;66172;48.526;8.078;2023-12-07T11:29:27;99864.03;;;2.44;87.01
77192;BME280;66172;48.526;8.078;2023-12-07T11:31:57;99848.66;;;2.65;87.47
77192;BME280;66172;48.526;8.078;2023-12-07T11:34:36;99852.91;;;2.76;85.73
77192;BME280;66172;48.526;8.078;2023-12-07T11:37:02;99844.50;;;2.87;85.13
77192;BME280;66172;48.526;8.078;2023-12-07T11:39:29;99833.19;;;2.95;83.84
77192;BME280;66172;48.526;8.078;2023-12-07T11:42:06;99829.16;;;2.93;84.41
77192;BME280;66172;48.526;8.078;2023-12-07T11:44:34;99828.56;;;3.06;84.70
77192;BME280;66172;48.526;8.078;2023-12-07T11:47:01;99819.31;;;3.17;85.35
77192;BME280;66172;48.526;8.078;2023-12-07T11:49:28;99822.84;;;3.13;84.44
77192;BME280;66172;48.526;8.078;2023-12-07T11:51:54;99817.44;;;3.18;84.71
77192;BME280;66172;48.526;8.078;2023-12-07T11:54:22;99814.56;;;3.09;84.37
77192;BME280;66172;48.526;8.078;2023-12-07T11:56:52;99810.50;;;3.12;84.40
77192;BME280;66172;48.526;8.078;2023-12-07T11:59:18;99812.13;;;3.13;84.52
77192;BME280;66172;48.526;8.078;2023-12-07T12:01:48;99797.31;;;3.15;85.16
77192;BME280;66172;48.526;8.078;2023-12-07T12:04:16;99802.78;;;3.00;85.41
77192;BME280;66172;48.526;8.078;2023-12-07T12:06:45;99800.00;;;2.76;85.33
77192;BME280;66172;48.526;8.078;2023-12-07T12:09:14;99797.09;;;2.68;85.97
77192;BME280;66172;48.526;8.078;2023-12-07T12:11:44;99808.19;;;2.56;86.21
77192;BME280;66172;48.526;8.078;2023-12-07T12:14:14;99812.19;;;2.53;86.83
77192;BME280;66172;48.526;8.078;2023-12-07T12:16:40;99806.09;;;2.43;86.47
77192;BME280;66172;48.526;8.078;2023-12-07T12:19:06;99803.19;;;2.34;87.34
77192;BME280;66172;48.526;8.078;2023-12-07T12:21:36;99798.13;;;2.28;88.05
77192;BME280;66172;48.526;8.078;2023-12-07T12:24:07;99789.31;;;2.17;88.30
77192;BME280;66172;48.526;8.078;2023-12-07T12:26:35;99797.06;;;2.19;88.34
77192;BME280;66172;48.526;8.078;2023-12-07T12:29:02;99792.59;;;2.04;88.54
77192;BME280;66172;48.526;8.078;2023-12-07T12:31:29;99807.34;;;1.96;88.45
77192;BME280;66172;48.526;8.078;2023-12-07T12:33:55;99803.06;;;2.00;88.39
77192;BME280;66172;48.526;8.078;2023-12-07T12:36:21;99811.38;;;1.99;88.76
77192;BME280;66172;48.526;8.078;2023-12-07T12:38:49;99817.03;;;1.87;90.29
77192;BME280;66172;48.526;8.078;2023-12-07T12:41:18;99820.50;;;1.93;89.92
77192;BME280;66172;48.526;8.078;2023-12-07T12:43:45;99826.94;;;1.87;89.74
77192;BME280;66172;48.526;8.078;2023-12-07T12:46:11;99837.97;;;1.75;90.21
77192;BME280;66172;48.526;8.078;2023-12-07T12:48:52;99833.13;;;1.82;91.08
77192;BME280;66172;48.526;8.078;2023-12-07T12:51:18;99831.00;;;1.69;91.91
77192;BME280;66172;48.526;8.078;2023-12-07T12:53:44;99830.50;;;1.42;92.28